sensor_id;sensor_type;location;lat;lon;timestamp;P1;durP1;ratioP1;P2;durP2;ratioP2
5456;SDS011;2751;49.802;9.944;2023-04-25T00:01:45;3.13;;;3.00;;
5456;SDS011;2751;49.802;9.944;2023-04-25T00:04:13;3.10;;;2.90;;
5456;SDS011;2751;49.802;9.944;2023-04-25T00:06:40;3.47;;;3.27;;
5456;SDS011;2751;49.802;9.944;2023-04-25T00:09:07;3.17;;;2.93;;
5456;SDS011;2751;49.802;9.944;2023-04-25T00:11:36;3.43;;;2.90;;
5456;SDS011;2751;49.802;9.944;2023-04-25T00:14:03;3.63;;;3.33;;
5456;SDS011;2751;49.802;9.944;2023-04-25T00:16:31;3.40;;;3.20;;
5456;SDS011;2751;49.802;9.944;2023-04-25T00:18:59;3.60;;;3.10;;
5456;SDS011;2751;49.802;9.944;2023-04-25T00:21:29;3.20;;;3.00;;
5456;SDS011;2751;49.802;9.944;2023-04-25T00:23:56;3.30;;;3.00;;
5456;SDS011;2751;49.802;9.944;2023-04-25T00:26:23;3.17;;;2.87;;
5456;SDS011;2751;49.802;9.944;2023-04-25T00:28:50;5.47;;;3.83;;
5456;SDS011;2751;49.802;9.944;2023-04-25T00:31:18;3.33;;;3.00;;
5456;SDS011;2751;49.802;9.944;2023-04-25T00:33:45;3.37;;;3.10;;
5456;SDS011;2751;49.802;9.944;2023-04-25T00:36:13;2.87;;;2.67;;
5456;SDS011;2751;49.802;9.944;2023-04-25T00:38:43;3.00;;;2.80;;
5456;SDS011;2751;49.802;9.944;2023-04-25T00:41:10;3.30;;;3.00;;
5456;SDS011;2751;49.802;9.944;2023-04-25T00:43:37;3.20;;;3.00;;
5456;SDS011;2751;49.802;9.944;2023-04-25T00:46:06;4.73;;;3.60;;
5456;SDS011;2751;49.802;9.944;2023-04-25T00:48:33;3.27;;;3.07;;
5456;SDS011;2751;49.802;9.944;2023-04-25T00:51:00;3.63;;;3.33;;
5456;SDS011;2751;49.802;9.944;2023-04-25T00:53:28;5.07;;;3.50;;
5456;SDS011;2751;49.802;9.944;2023-04-25T00:55:58;2.87;;;2.67;;
5456;SDS011;2751;49.802;9.944;2023-04-25T00:58:25;2.80;;;2.60;;
5456;SDS011;2751;49.802;9.944;2023-04-25T01:00:52;3.13;;;2.93;;
5456;SDS011;2751;49.802;9.944;2023-04-25T01:03:19;3.60;;;3.30;;
5456;SDS011;2751;49.802;9.944;2023-04-25T01:05:47;2.70;;;2.60;;
5456;SDS011;2751;49.802;9.944;2023-04-25T01:08:14;3.03;;;2.80;;
5456;SDS011;2751;49.802;9.944;2023-04-25T01:10:41;3.07;;;2.87;;
5456;SDS011;2751;49.802;9.944;2023-04-25T01:13:09;3.13;;;2.90;;
5456;SDS011;2751;49.802;9.944;2023-04-25T01:15:36;2.90;;;2.70;;
5456;SDS011;2751;49.802;9.944;2023-04-25T01:18:03;4.67;;;3.03;;
5456;SDS011;2751;49.802;9.944;2023-04-25T01:20:31;3.00;;;2.80;;
5456;SDS011;2751;49.802;9.944;2023-04-25T01:23:00;3.17;;;2.83;;
5456;SDS011;2751;49.802;9.944;2023-04-25T01:25:28;3.33;;;3.03;;
5456;SDS011;2751;49.802;9.944;2023-04-25T01:27:56;2.73;;;2.60;;
5456;SDS011;2751;49.802;9.944;2023-04-25T01:30:24;1.50;;;1.40;;
5456;SDS011;2751;49.802;9.944;2023-04-25T01:32:52;1.90;;;1.80;;
5456;SDS011;2751;49.802;9.944;2023-04-25T01:35:21;2.60;;;2.40;;
5456;SDS011;2751;49.802;9.944;2023-04-25T01:37:49;3.20;;;2.90;;
5456;SDS011;2751;49.802;9.944;2023-04-25T01:40:18;2.27;;;2.07;;
5456;SDS011;2751;49.802;9.944;2023-04-25T01:42:47;2.40;;;2.00;;
5456;SDS011;2751;49.802;9.944;2023-04-25T01:45:14;1.30;;;1.20;;
5456;SDS011;2751;49.802;9.944;2023-04-25T01:47:41;2.07;;;1.97;;
5456;SDS011;2751;49.802;9.944;2023-04-25T01:50:12;2.27;;;2.17;;
5456;SDS011;2751;49.802;9.944;2023-04-25T01:52:38;2.13;;;1.90;;
5456;SDS011;2751;49.802;9.944;2023-04-25T01:55:06;1.73;;;1.63;;
5456;SDS011;2751;49.802;9.944;2023-04-25T01:57:34;2.00;;;1.90;;
5456;SDS011;2751;49.802;9.944;2023-04-25T02:00:03;2.70;;;2.50;;
5456;SDS011;2751;49.802;9.944;2023-04-25T02:02:33;2.53;;;1.93;;
5456;SDS011;2751;49.802;9.944;2023-04-25T02:05:00;2.50;;;2.33;;
5456;SDS011;2751;49.802;9.944;2023-04-25T02:07:27;2.13;;;2.03;;
5456;SDS011;2751;49.802;9.944;2023-04-25T02:09:54;5.57;;;2.80;;
5456;SDS011;2751;49.802;9.944;2023-04-25T02:12:21;2.70;;;2.50;;
5456;SDS011;2751;49.802;9.944;2023-04-25T02:14:49;2.70;;;2.50;;
5456;SDS011;2751;49.802;9.944;2023-04-25T02:17:16;3.03;;;2.10;;
5456;SDS011;2751;49.802;9.944;2023-04-25T02:19:44;2.37;;;2.27;;
5456;SDS011;2751;49.802;9.944;2023-04-25T02:22:10;4.53;;;2.30;;
5456;SDS011;2751;49.802;9.944;2023-04-25T02:24:37;2.63;;;2.43;;
5456;SDS011;2751;49.802;9.944;2023-04-25T02:27:05;1.83;;;1.73;;
5456;SDS011;2751;49.802;9.944;2023-04-25T02:29:32;2.60;;;2.30;;
5456;SDS011;2751;49.802;9.944;2023-04-25T02:32:00;1.90;;;1.80;;
5456;SDS011;2751;49.802;9.944;2023-04-25T02:34:27;1.83;;;1.53;;
5456;SDS011;2751;49.802;9.944;2023-04-25T02:36:54;2.00;;;1.90;;
5456;SDS011;2751;49.802;9.944;2023-04-25T02:39:21;1.90;;;1.80;;
5456;SDS011;2751;49.802;9.944;2023-04-25T02:41:50;1.63;;;1.53;;
5456;SDS011;2751;49.802;9.944;2023-04-25T02:44:18;2.20;;;2.10;;
5456;SDS011;2751;49.802;9.944;2023-04-25T02:46:45;1.60;;;1.50;;
5456;SDS011;2751;49.802;9.944;2023-04-25T02:49:13;1.60;;;1.50;;
5456;SDS011;2751;49.802;9.944;2023-04-25T02:51:40;1.70;;;1.60;;
5456;SDS011;2751;49.802;9.944;2023-04-25T02:54:07;1.80;;;1.70;;
5456;SDS011;2751;49.802;9.944;2023-04-25T02:56:34;1.43;;;1.33;;
5456;SDS011;2751;49.802;9.944;2023-04-25T02:59:00;1.90;;;1.80;;
5456;SDS011;2751;49.802;9.944;2023-04-25T03:01:27;3.00;;;1.63;;
5456;SDS011;2751;49.802;9.944;2023-04-25T03:03:54;2.13;;;2.03;;
5456;SDS011;2751;49.802;9.944;2023-04-25T03:06:22;2.10;;;2.00;;
5456;SDS011;2751;49.802;9.944;2023-04-25T03:08:49;2.40;;;2.20;;
5456;SDS011;2751;49.802;9.944;2023-04-25T03:11:16;2.10;;;2.00;;
5456;SDS011;2751;49.802;9.944;2023-04-25T03:13:45;1.30;;;1.20;;
5456;SDS011;2751;49.802;9.944;2023-04-25T03:16:12;2.20;;;2.10;;
5456;SDS011;2751;49.802;9.944;2023-04-25T03:18:39;1.90;;;1.80;;
5456;SDS011;2751;49.802;9.944;2023-04-25T03:21:06;1.90;;;1.80;;
5456;SDS011;2751;49.802;9.944;2023-04-25T03:23:34;2.00;;;1.90;;
5456;SDS011;2751;49.802;9.944;2023-04-25T03:26:01;1.77;;;1.60;;
5456;SDS011;2751;49.802;9.944;2023-04-25T03:28:28;2.60;;;2.40;;
5456;SDS011;2751;49.802;9.944;2023-04-25T03:30:55;2.43;;;2.33;;
5456;SDS011;2751;49.802;9.944;2023-04-25T03:33:21;1.90;;;1.80;;
5456;SDS011;2751;49.802;9.944;2023-04-25T03:35:48;2.20;;;2.10;;
5456;SDS011;2751;49.802;9.944;2023-04-25T03:38:16;2.70;;;2.50;;
5456;SDS011;2751;49.802;9.944;2023-04-25T03:40:44;2.67;;;2.47;;
5456;SDS011;2751;49.802;9.944;2023-04-25T03:43:11;2.97;;;2.77;;
5456;SDS011;2751;49.802;9.944;2023-04-25T03:45:38;3.50;;;3.00;;
5456;SDS011;2751;49.802;9.944;2023-04-25T03:48:05;3.63;;;3.33;;
5456;SDS011;2751;49.802;9.944;2023-04-25T03:50:32;3.30;;;3.03;;
5456;SDS011;2751;49.802;9.944;2023-04-25T03:52:58;3.57;;;3.27;;
5456;SDS011;2751;49.802;9.944;2023-04-25T03:55:25;5.80;;;3.67;;
5456;SDS011;2751;49.802;9.944;2023-04-25T03:57:54;3.90;;;3.53;;
5456;SDS011;2751;49.802;9.944;2023-04-25T04:00:21;3.40;;;3.10;;
5456;SDS011;2751;49.802;9.944;2023-04-25T04:02:47;3.67;;;3.37;;
5456;SDS011;2751;49.802;9.944;2023-04-25T04:05:14;4.17;;;3.67;;
5456;SDS011;2751;49.802;9.944;2023-04-25T04:07:41;4.50;;;4.10;;
5456;SDS011;2751;49.802;9.944;2023-04-25T04:10:08;4.17;;;3.80;;
5456;SDS011;2751;49.802;9.944;2023-04-25T04:12:35;4.20;;;3.90;;
5456;SDS011;2751;49.802;9.944;2023-04-25T04:15:04;4.40;;;4.00;;
5456;SDS011;2751;49.802;9.944;2023-04-25T04:17:32;3.80;;;3.50;;
5456;SDS011;2751;49.802;9.944;2023-04-25T04:19:59;4.20;;;3.83;;
5456;SDS011;2751;49.802;9.944;2023-04-25T04:22:27;5.50;;;4.10;;
5456;SDS011;2751;49.802;9.944;2023-04-25T04:24:54;4.20;;;3.80;;
5456;SDS011;2751;49.802;9.944;2023-04-25T04:27:22;4.77;;;4.37;;
5456;SDS011;2751;49.802;9.944;2023-04-25T04:29:49;5.17;;;3.67;;
5456;SDS011;2751;49.802;9.944;2023-04-25T04:32:19;4.23;;;3.93;;
5456;SDS011;2751;49.802;9.944;2023-04-25T04:34:45;4.33;;;3.93;;
5456;SDS011;2751;49.802;9.944;2023-04-25T04:37:13;4.50;;;4.10;;
5456;SDS011;2751;49.802;9.944;2023-04-25T04:39:40;6.00;;;5.40;;
5456;SDS011;2751;49.802;9.944;2023-04-25T04:42:07;5.60;;;5.10;;
5456;SDS011;2751;49.802;9.944;2023-04-25T04:44:36;5.80;;;5.23;;
5456;SDS011;2751;49.802;9.944;2023-04-25T04:47:04;6.60;;;5.60;;
5456;SDS011;2751;49.802;9.944;2023-04-25T04:49:32;5.20;;;4.80;;
5456;SDS011;2751;49.802;9.944;2023-04-25T04:52:00;7.40;;;5.50;;
5456;SDS011;2751;49.802;9.944;2023-04-25T04:54:26;5.67;;;5.07;;
5456;SDS011;2751;49.802;9.944;2023-04-25T04:56:53;7.57;;;6.23;;
5456;SDS011;2751;49.802;9.944;2023-04-25T04:59:21;6.50;;;5.90;;
5456;SDS011;2751;49.802;9.944;2023-04-25T05:01:48;6.60;;;5.10;;
5456;SDS011;2751;49.802;9.944;2023-04-25T05:04:15;8.30;;;7.50;;
5456;SDS011;2751;49.802;9.944;2023-04-25T05:06:43;8.60;;;7.43;;
5456;SDS011;2751;49.802;9.944;2023-04-25T05:09:10;7.50;;;6.70;;
5456;SDS011;2751;49.802;9.944;2023-04-25T05:11:36;7.30;;;6.70;;
5456;SDS011;2751;49.802;9.944;2023-04-25T05:14:04;6.23;;;5.63;;
5456;SDS011;2751;49.802;9.944;2023-04-25T05:16:30;6.57;;;5.93;;
5456;SDS011;2751;49.802;9.944;2023-04-25T05:18:57;5.60;;;5.10;;
5456;SDS011;2751;49.802;9.944;2023-04-25T05:21:24;7.10;;;5.77;;
5456;SDS011;2751;49.802;9.944;2023-04-25T05:23:53;6.70;;;5.90;;
5456;SDS011;2751;49.802;9.944;2023-04-25T05:26:20;7.03;;;6.33;;
5456;SDS011;2751;49.802;9.944;2023-04-25T05:28:48;7.40;;;5.20;;
5456;SDS011;2751;49.802;9.944;2023-04-25T05:31:16;5.00;;;4.53;;
5456;SDS011;2751;49.802;9.944;2023-04-25T05:33:43;5.53;;;5.03;;
5456;SDS011;2751;49.802;9.944;2023-04-25T05:36:10;6.77;;;6.07;;
5456;SDS011;2751;49.802;9.944;2023-04-25T05:38:36;5.70;;;5.10;;
5456;SDS011;2751;49.802;9.944;2023-04-25T05:41:05;5.47;;;4.97;;
5456;SDS011;2751;49.802;9.944;2023-04-25T05:43:32;7.37;;;6.07;;
5456;SDS011;2751;49.802;9.944;2023-04-25T05:45:59;7.00;;;6.33;;
5456;SDS011;2751;49.802;9.944;2023-04-25T05:48:26;7.40;;;6.70;;
5456;SDS011;2751;49.802;9.944;2023-04-25T05:50:53;9.33;;;5.63;;
5456;SDS011;2751;49.802;9.944;2023-04-25T05:53:20;7.30;;;5.60;;
5456;SDS011;2751;49.802;9.944;2023-04-25T05:55:47;6.73;;;5.73;;
5456;SDS011;2751;49.802;9.944;2023-04-25T05:58:15;5.43;;;5.03;;
5456;SDS011;2751;49.802;9.944;2023-04-25T06:00:42;7.60;;;5.57;;
5456;SDS011;2751;49.802;9.944;2023-04-25T06:03:09;3.80;;;3.50;;
5456;SDS011;2751;49.802;9.944;2023-04-25T06:05:36;5.67;;;4.73;;
5456;SDS011;2751;49.802;9.944;2023-04-25T06:08:03;8.07;;;4.97;;
5456;SDS011;2751;49.802;9.944;2023-04-25T06:10:30;5.80;;;4.40;;
5456;SDS011;2751;49.802;9.944;2023-04-25T06:12:57;7.63;;;6.30;;
5456;SDS011;2751;49.802;9.944;2023-04-25T06:15:25;5.53;;;3.90;;
5456;SDS011;2751;49.802;9.944;2023-04-25T06:17:52;6.53;;;5.50;;
5456;SDS011;2751;49.802;9.944;2023-04-25T06:20:18;5.10;;;3.90;;
5456;SDS011;2751;49.802;9.944;2023-04-25T06:22:48;4.47;;;4.07;;
5456;SDS011;2751;49.802;9.944;2023-04-25T06:25:15;8.00;;;5.63;;
5456;SDS011;2751;49.802;9.944;2023-04-25T06:27:42;8.47;;;5.00;;
5456;SDS011;2751;49.802;9.944;2023-04-25T06:30:09;4.83;;;4.37;;
5456;SDS011;2751;49.802;9.944;2023-04-25T06:32:38;6.00;;;3.20;;
5456;SDS011;2751;49.802;9.944;2023-04-25T06:35:05;6.80;;;4.50;;
5456;SDS011;2751;49.802;9.944;2023-04-25T06:37:33;6.93;;;5.37;;
5456;SDS011;2751;49.802;9.944;2023-04-25T06:39:59;11.30;;;5.40;;
5456;SDS011;2751;49.802;9.944;2023-04-25T06:42:27;4.80;;;4.20;;
5456;SDS011;2751;49.802;9.944;2023-04-25T06:44:54;6.87;;;4.80;;
5456;SDS011;2751;49.802;9.944;2023-04-25T06:47:21;3.03;;;2.73;;
5456;SDS011;2751;49.802;9.944;2023-04-25T06:49:49;10.80;;;6.07;;
5456;SDS011;2751;49.802;9.944;2023-04-25T06:52:16;5.30;;;4.80;;
5456;SDS011;2751;49.802;9.944;2023-04-25T06:54:43;7.20;;;4.90;;
5456;SDS011;2751;49.802;9.944;2023-04-25T06:57:10;3.00;;;2.50;;
5456;SDS011;2751;49.802;9.944;2023-04-25T06:59:37;5.77;;;4.10;;
5456;SDS011;2751;49.802;9.944;2023-04-25T07:02:04;4.40;;;3.90;;
5456;SDS011;2751;49.802;9.944;2023-04-25T07:04:31;9.30;;;4.47;;
5456;SDS011;2751;49.802;9.944;2023-04-25T07:06:59;7.27;;;4.07;;
5456;SDS011;2751;49.802;9.944;2023-04-25T07:09:27;6.77;;;4.70;;
5456;SDS011;2751;49.802;9.944;2023-04-25T07:11:54;4.20;;;3.80;;
5456;SDS011;2751;49.802;9.944;2023-04-25T07:14:21;10.20;;;4.10;;
5456;SDS011;2751;49.802;9.944;2023-04-25T07:16:48;5.63;;;3.73;;
5456;SDS011;2751;49.802;9.944;2023-04-25T07:19:15;8.47;;;5.13;;
5456;SDS011;2751;49.802;9.944;2023-04-25T07:21:42;6.17;;;5.10;;
5456;SDS011;2751;49.802;9.944;2023-04-25T07:24:10;6.43;;;4.63;;
5456;SDS011;2751;49.802;9.944;2023-04-25T07:26:37;7.97;;;4.20;;
5456;SDS011;2751;49.802;9.944;2023-04-25T07:29:03;5.10;;;4.20;;
5456;SDS011;2751;49.802;9.944;2023-04-25T07:31:30;6.40;;;4.03;;
5456;SDS011;2751;49.802;9.944;2023-04-25T07:33:57;4.10;;;3.70;;
5456;SDS011;2751;49.802;9.944;2023-04-25T07:36:24;11.20;;;3.90;;
5456;SDS011;2751;49.802;9.944;2023-04-25T07:38:51;7.10;;;4.00;;
5456;SDS011;2751;49.802;9.944;2023-04-25T07:41:19;5.70;;;3.93;;
5456;SDS011;2751;49.802;9.944;2023-04-25T07:43:46;4.47;;;3.70;;
5456;SDS011;2751;49.802;9.944;2023-04-25T07:46:13;4.60;;;3.43;;
5456;SDS011;2751;49.802;9.944;2023-04-25T07:48:40;6.03;;;4.47;;
5456;SDS011;2751;49.802;9.944;2023-04-25T07:51:07;6.33;;;4.37;;
5456;SDS011;2751;49.802;9.944;2023-04-25T07:53:33;3.40;;;3.10;;
5456;SDS011;2751;49.802;9.944;2023-04-25T07:56:02;7.60;;;3.50;;
5456;SDS011;2751;49.802;9.944;2023-04-25T07:58:31;7.23;;;2.47;;
5456;SDS011;2751;49.802;9.944;2023-04-25T08:00:57;5.23;;;2.10;;
5456;SDS011;2751;49.802;9.944;2023-04-25T08:03:24;3.77;;;2.50;;
5456;SDS011;2751;49.802;9.944;2023-04-25T08:05:52;3.53;;;2.40;;
5456;SDS011;2751;49.802;9.944;2023-04-25T08:08:19;3.80;;;1.90;;
5456;SDS011;2751;49.802;9.944;2023-04-25T08:10:46;2.73;;;1.30;;
5456;SDS011;2751;49.802;9.944;2023-04-25T08:13:14;2.00;;;1.70;;
5456;SDS011;2751;49.802;9.944;2023-04-25T08:15:42;5.43;;;1.67;;
5456;SDS011;2751;49.802;9.944;2023-04-25T08:18:09;3.53;;;1.93;;
5456;SDS011;2751;49.802;9.944;2023-04-25T08:20:35;5.23;;;2.20;;
5456;SDS011;2751;49.802;9.944;2023-04-25T08:23:02;1.30;;;1.20;;
5456;SDS011;2751;49.802;9.944;2023-04-25T08:25:29;5.23;;;1.73;;
5456;SDS011;2751;49.802;9.944;2023-04-25T08:27:56;1.23;;;1.13;;
5456;SDS011;2751;49.802;9.944;2023-04-25T08:30:24;2.97;;;1.60;;
5456;SDS011;2751;49.802;9.944;2023-04-25T08:32:53;4.00;;;1.60;;
5456;SDS011;2751;49.802;9.944;2023-04-25T08:35:20;3.70;;;2.07;;
5456;SDS011;2751;49.802;9.944;2023-04-25T08:37:47;2.70;;;2.07;;
5456;SDS011;2751;49.802;9.944;2023-04-25T08:40:14;5.73;;;4.30;;
5456;SDS011;2751;49.802;9.944;2023-04-25T08:42:42;1.70;;;1.60;;
5456;SDS011;2751;49.802;9.944;2023-04-25T08:45:09;5.10;;;1.80;;
5456;SDS011;2751;49.802;9.944;2023-04-25T08:47:37;3.43;;;1.60;;
5456;SDS011;2751;49.802;9.944;2023-04-25T08:50:08;2.53;;;1.30;;
5456;SDS011;2751;49.802;9.944;2023-04-25T08:52:36;1.67;;;1.50;;
5456;SDS011;2751;49.802;9.944;2023-04-25T08:55:06;2.63;;;1.53;;
5456;SDS011;2751;49.802;9.944;2023-04-25T08:57:35;3.83;;;1.90;;
5456;SDS011;2751;49.802;9.944;2023-04-25T09:00:03;2.23;;;1.53;;
5456;SDS011;2751;49.802;9.944;2023-04-25T09:02:33;3.00;;;1.80;;
5456;SDS011;2751;49.802;9.944;2023-04-25T09:05:00;2.27;;;1.87;;
5456;SDS011;2751;49.802;9.944;2023-04-25T09:07:30;1.80;;;1.70;;
5456;SDS011;2751;49.802;9.944;2023-04-25T09:09:57;2.10;;;1.90;;
5456;SDS011;2751;49.802;9.944;2023-04-25T09:12:28;2.67;;;2.40;;
5456;SDS011;2751;49.802;9.944;2023-04-25T09:15:03;2.90;;;2.20;;
5456;SDS011;2751;49.802;9.944;2023-04-25T09:17:32;1.50;;;1.40;;
5456;SDS011;2751;49.802;9.944;2023-04-25T09:20:06;1.70;;;1.60;;
5456;SDS011;2751;49.802;9.944;2023-04-25T09:22:35;1.90;;;1.80;;
5456;SDS011;2751;49.802;9.944;2023-04-25T09:25:03;2.10;;;1.90;;
5456;SDS011;2751;49.802;9.944;2023-04-25T09:27:34;1.90;;;1.70;;
5456;SDS011;2751;49.802;9.944;2023-04-25T09:30:02;1.47;;;1.37;;
5456;SDS011;2751;49.802;9.944;2023-04-25T09:32:30;1.90;;;1.80;;
5456;SDS011;2751;49.802;9.944;2023-04-25T09:34:57;2.53;;;2.13;;
5456;SDS011;2751;49.802;9.944;2023-04-25T09:37:24;9.13;;;3.57;;
5456;SDS011;2751;49.802;9.944;2023-04-25T09:39:54;3.07;;;2.20;;
5456;SDS011;2751;49.802;9.944;2023-04-25T09:42:22;2.30;;;2.10;;
5456;SDS011;2751;49.802;9.944;2023-04-25T09:44:51;1.70;;;1.50;;
5456;SDS011;2751;49.802;9.944;2023-04-25T09:47:19;2.17;;;1.63;;
5456;SDS011;2751;49.802;9.944;2023-04-25T09:49:48;1.60;;;1.50;;
5456;SDS011;2751;49.802;9.944;2023-04-25T09:52:17;1.63;;;1.57;;
5456;SDS011;2751;49.802;9.944;2023-04-25T09:54:45;2.43;;;1.80;;
5456;SDS011;2751;49.802;9.944;2023-04-25T09:57:15;4.40;;;1.90;;
5456;SDS011;2751;49.802;9.944;2023-04-25T09:59:43;1.73;;;1.63;;
5456;SDS011;2751;49.802;9.944;2023-04-25T10:02:12;1.80;;;1.70;;
5456;SDS011;2751;49.802;9.944;2023-04-25T10:04:40;2.00;;;1.90;;
5456;SDS011;2751;49.802;9.944;2023-04-25T10:07:08;2.80;;;2.03;;
5456;SDS011;2751;49.802;9.944;2023-04-25T10:09:36;4.60;;;1.67;;
5456;SDS011;2751;49.802;9.944;2023-04-25T10:12:05;1.50;;;1.40;;
5456;SDS011;2751;49.802;9.944;2023-04-25T10:14:34;1.90;;;1.80;;
5456;SDS011;2751;49.802;9.944;2023-04-25T10:17:02;2.27;;;1.67;;
5456;SDS011;2751;49.802;9.944;2023-04-25T10:19:29;2.60;;;2.30;;
5456;SDS011;2751;49.802;9.944;2023-04-25T10:21:58;2.50;;;2.30;;
5456;SDS011;2751;49.802;9.944;2023-04-25T10:24:30;2.53;;;2.20;;
5456;SDS011;2751;49.802;9.944;2023-04-25T10:26:57;2.23;;;2.00;;
5456;SDS011;2751;49.802;9.944;2023-04-25T10:29:25;1.90;;;1.70;;
5456;SDS011;2751;49.802;9.944;2023-04-25T10:31:53;2.30;;;2.10;;
5456;SDS011;2751;49.802;9.944;2023-04-25T10:34:23;2.83;;;1.80;;
5456;SDS011;2751;49.802;9.944;2023-04-25T10:37:03;2.37;;;2.00;;
5456;SDS011;2751;49.802;9.944;2023-04-25T10:39:30;2.07;;;1.83;;
5456;SDS011;2751;49.802;9.944;2023-04-25T10:41:59;1.90;;;1.60;;
5456;SDS011;2751;49.802;9.944;2023-04-25T10:44:28;2.23;;;2.03;;
5456;SDS011;2751;49.802;9.944;2023-04-25T10:46:57;1.77;;;1.50;;
5456;SDS011;2751;49.802;9.944;2023-04-25T10:49:29;1.97;;;1.87;;
5456;SDS011;2751;49.802;9.944;2023-04-25T10:54:47;2.30;;;2.10;;
5456;SDS011;2751;49.802;9.944;2023-04-25T10:57:27;1.73;;;1.63;;
5456;SDS011;2751;49.802;9.944;2023-04-25T10:59:58;3.20;;;2.23;;
5456;SDS011;2751;49.802;9.944;2023-04-25T11:02:27;2.00;;;1.90;;
5456;SDS011;2751;49.802;9.944;2023-04-25T11:04:54;3.13;;;1.87;;
5456;SDS011;2751;49.802;9.944;2023-04-25T11:07:23;3.20;;;1.73;;
5456;SDS011;2751;49.802;9.944;2023-04-25T11:10:01;2.23;;;2.03;;
5456;SDS011;2751;49.802;9.944;2023-04-25T11:12:29;2.37;;;2.17;;
5456;SDS011;2751;49.802;9.944;2023-04-25T11:15:01;2.30;;;1.93;;
5456;SDS011;2751;49.802;9.944;2023-04-25T11:17:30;1.70;;;1.60;;
5456;SDS011;2751;49.802;9.944;2023-04-25T11:19:58;2.67;;;1.50;;
5456;SDS011;2751;49.802;9.944;2023-04-25T11:22:26;1.80;;;1.70;;
5456;SDS011;2751;49.802;9.944;2023-04-25T11:24:55;1.90;;;1.80;;
5456;SDS011;2751;49.802;9.944;2023-04-25T11:27:21;2.07;;;1.97;;
5456;SDS011;2751;49.802;9.944;2023-04-25T11:29:49;3.80;;;2.13;;
5456;SDS011;2751;49.802;9.944;2023-04-25T11:32:17;2.23;;;1.97;;
5456;SDS011;2751;49.802;9.944;2023-04-25T11:34:46;1.53;;;1.43;;
5456;SDS011;2751;49.802;9.944;2023-04-25T11:37:13;1.30;;;1.20;;
5456;SDS011;2751;49.802;9.944;2023-04-25T11:39:44;1.87;;;1.73;;
5456;SDS011;2751;49.802;9.944;2023-04-25T11:42:12;1.87;;;1.77;;
5456;SDS011;2751;49.802;9.944;2023-04-25T11:44:39;3.50;;;1.90;;
5456;SDS011;2751;49.802;9.944;2023-04-25T11:47:06;1.70;;;1.60;;
5456;SDS011;2751;49.802;9.944;2023-04-25T11:49:33;2.67;;;1.70;;
5456;SDS011;2751;49.802;9.944;2023-04-25T11:52:02;3.17;;;1.67;;
5456;SDS011;2751;49.802;9.944;2023-04-25T11:54:34;3.53;;;2.10;;
5456;SDS011;2751;49.802;9.944;2023-04-25T11:57:01;2.57;;;1.63;;
5456;SDS011;2751;49.802;9.944;2023-04-25T11:59:29;2.50;;;1.83;;
5456;SDS011;2751;49.802;9.944;2023-04-25T12:01:55;1.93;;;1.70;;
5456;SDS011;2751;49.802;9.944;2023-04-25T12:04:24;3.63;;;2.20;;
5456;SDS011;2751;49.802;9.944;2023-04-25T12:06:51;3.33;;;1.73;;
5456;SDS011;2751;49.802;9.944;2023-04-25T12:09:20;3.93;;;2.63;;
5456;SDS011;2751;49.802;9.944;2023-04-25T12:11:54;2.63;;;2.43;;
5456;SDS011;2751;49.802;9.944;2023-04-25T12:14:24;3.70;;;2.23;;
5456;SDS011;2751;49.802;9.944;2023-04-25T12:16:52;1.80;;;1.70;;
5456;SDS011;2751;49.802;9.944;2023-04-25T12:19:22;2.53;;;1.97;;
5456;SDS011;2751;49.802;9.944;2023-04-25T12:21:49;1.60;;;1.50;;
5456;SDS011;2751;49.802;9.944;2023-04-25T12:24:17;4.67;;;2.47;;
5456;SDS011;2751;49.802;9.944;2023-04-25T12:26:50;2.50;;;1.90;;
5456;SDS011;2751;49.802;9.944;2023-04-25T12:29:18;3.50;;;2.37;;
5456;SDS011;2751;49.802;9.944;2023-04-25T12:31:46;2.67;;;2.47;;
5456;SDS011;2751;49.802;9.944;2023-04-25T12:34:14;2.50;;;2.30;;
5456;SDS011;2751;49.802;9.944;2023-04-25T12:36:41;4.60;;;2.20;;
5456;SDS011;2751;49.802;9.944;2023-04-25T12:39:08;3.03;;;2.20;;
5456;SDS011;2751;49.802;9.944;2023-04-25T12:41:40;1.73;;;1.33;;
5456;SDS011;2751;49.802;9.944;2023-04-25T12:44:09;3.30;;;2.43;;
5456;SDS011;2751;49.802;9.944;2023-04-25T12:46:36;2.67;;;2.30;;
5456;SDS011;2751;49.802;9.944;2023-04-25T12:49:03;1.97;;;1.80;;
5456;SDS011;2751;49.802;9.944;2023-04-25T12:51:31;4.40;;;3.00;;
5456;SDS011;2751;49.802;9.944;2023-04-25T12:53:58;2.10;;;1.83;;
5456;SDS011;2751;49.802;9.944;2023-04-25T12:56:25;1.77;;;1.40;;
5456;SDS011;2751;49.802;9.944;2023-04-25T12:58:52;2.53;;;2.43;;
5456;SDS011;2751;49.802;9.944;2023-04-25T13:01:20;2.80;;;2.57;;
5456;SDS011;2751;49.802;9.944;2023-04-25T13:03:47;6.43;;;2.57;;
5456;SDS011;2751;49.802;9.944;2023-04-25T13:06:15;4.47;;;3.23;;
5456;SDS011;2751;49.802;9.944;2023-04-25T13:08:42;1.77;;;1.53;;
5456;SDS011;2751;49.802;9.944;2023-04-25T13:11:09;3.00;;;2.80;;
5456;SDS011;2751;49.802;9.944;2023-04-25T13:13:36;2.33;;;2.13;;
5456;SDS011;2751;49.802;9.944;2023-04-25T13:16:05;2.70;;;2.57;;
5456;SDS011;2751;49.802;9.944;2023-04-25T13:18:34;4.17;;;2.70;;
5456;SDS011;2751;49.802;9.944;2023-04-25T13:21:01;1.10;;;1.10;;
5456;SDS011;2751;49.802;9.944;2023-04-25T13:23:29;4.27;;;2.30;;
5456;SDS011;2751;49.802;9.944;2023-04-25T13:25:56;4.97;;;2.50;;
5456;SDS011;2751;49.802;9.944;2023-04-25T13:28:24;2.83;;;2.40;;
5456;SDS011;2751;49.802;9.944;2023-04-25T13:30:51;2.23;;;2.00;;
5456;SDS011;2751;49.802;9.944;2023-04-25T13:33:18;1.80;;;1.67;;
5456;SDS011;2751;49.802;9.944;2023-04-25T13:35:48;2.10;;;1.60;;
5456;SDS011;2751;49.802;9.944;2023-04-25T13:38:19;4.20;;;2.50;;
5456;SDS011;2751;49.802;9.944;2023-04-25T13:40:47;4.00;;;3.00;;
5456;SDS011;2751;49.802;9.944;2023-04-25T13:43:14;3.17;;;2.70;;
5456;SDS011;2751;49.802;9.944;2023-04-25T13:45:41;3.17;;;2.90;;
5456;SDS011;2751;49.802;9.944;2023-04-25T13:48:08;1.83;;;1.73;;
5456;SDS011;2751;49.802;9.944;2023-04-25T13:50:35;3.30;;;3.00;;
5456;SDS011;2751;49.802;9.944;2023-04-25T13:53:03;3.27;;;2.97;;
5456;SDS011;2751;49.802;9.944;2023-04-25T13:55:30;3.30;;;3.00;;
5456;SDS011;2751;49.802;9.944;2023-04-25T13:57:57;4.77;;;2.87;;
5456;SDS011;2751;49.802;9.944;2023-04-25T14:00:24;2.77;;;2.57;;
5456;SDS011;2751;49.802;9.944;2023-04-25T14:02:51;3.93;;;2.67;;
5456;SDS011;2751;49.802;9.944;2023-04-25T14:05:18;5.00;;;3.30;;
5456;SDS011;2751;49.802;9.944;2023-04-25T14:07:45;2.37;;;2.10;;
5456;SDS011;2751;49.802;9.944;2023-04-25T14:10:13;5.87;;;2.60;;
5456;SDS011;2751;49.802;9.944;2023-04-25T14:12:40;7.50;;;2.73;;
5456;SDS011;2751;49.802;9.944;2023-04-25T14:15:07;2.50;;;2.03;;
5456;SDS011;2751;49.802;9.944;2023-04-25T14:17:34;3.00;;;2.10;;
5456;SDS011;2751;49.802;9.944;2023-04-25T14:20:01;3.93;;;2.73;;
5456;SDS011;2751;49.802;9.944;2023-04-25T14:22:30;3.83;;;2.50;;
5456;SDS011;2751;49.802;9.944;2023-04-25T14:24:57;2.40;;;2.20;;
5456;SDS011;2751;49.802;9.944;2023-04-25T14:27:25;3.43;;;2.57;;
5456;SDS011;2751;49.802;9.944;2023-04-25T14:29:53;2.03;;;1.83;;
5456;SDS011;2751;49.802;9.944;2023-04-25T14:32:19;2.10;;;1.30;;
5456;SDS011;2751;49.802;9.944;2023-04-25T14:34:46;7.30;;;1.17;;
5456;SDS011;2751;49.802;9.944;2023-04-25T14:37:13;1.33;;;1.23;;
5456;SDS011;2751;49.802;9.944;2023-04-25T14:39:41;1.80;;;1.70;;
5456;SDS011;2751;49.802;9.944;2023-04-25T14:42:08;1.63;;;1.37;;
5456;SDS011;2751;49.802;9.944;2023-04-25T14:44:37;5.53;;;2.00;;
5456;SDS011;2751;49.802;9.944;2023-04-25T14:47:04;1.70;;;1.60;;
5456;SDS011;2751;49.802;9.944;2023-04-25T14:49:31;6.43;;;2.20;;
5456;SDS011;2751;49.802;9.944;2023-04-25T14:51:58;5.23;;;1.90;;
5456;SDS011;2751;49.802;9.944;2023-04-25T14:54:26;2.90;;;2.53;;
5456;SDS011;2751;49.802;9.944;2023-04-25T14:56:53;2.63;;;2.47;;
5456;SDS011;2751;49.802;9.944;2023-04-25T14:59:19;3.23;;;1.80;;
5456;SDS011;2751;49.802;9.944;2023-04-25T15:01:48;2.90;;;1.80;;
5456;SDS011;2751;49.802;9.944;2023-04-25T15:04:16;2.83;;;1.70;;
5456;SDS011;2751;49.802;9.944;2023-04-25T15:06:43;2.10;;;1.60;;
5456;SDS011;2751;49.802;9.944;2023-04-25T15:09:10;2.67;;;1.73;;
5456;SDS011;2751;49.802;9.944;2023-04-25T15:11:37;3.50;;;2.10;;
5456;SDS011;2751;49.802;9.944;2023-04-25T15:14:04;2.30;;;1.70;;
5456;SDS011;2751;49.802;9.944;2023-04-25T15:16:31;6.57;;;1.90;;
5456;SDS011;2751;49.802;9.944;2023-04-25T15:18:59;3.03;;;1.80;;
5456;SDS011;2751;49.802;9.944;2023-04-25T15:21:29;3.40;;;2.30;;